Time;durP1;ratioP1;P1;durP2;ratioP2;P2;SDS_P1;SDS_P2;PMS_P1;PMS_P2;Temp;Humidity;BMP_temperature;BMP_pressure;BME280_temperature;BME280_humidity;BME280_pressure;Samples;Min_cycle;Max_cycle;Signal;HPM_P1;HPM_P2
2023/03/27 00:00:59;;;;;;;18.50;9.75;;;;;;;8.50;53.51;62875.06;5076063;28;20232;-76
2023/03/27 00:03:29;;;;;;;16.42;8.95;;;;;;;8.47;54.02;62871.97;5081003;28;20283;-76
2023/03/27 00:06:00;;;;;;;16.17;9.93;;;;;;;8.45;55.10;62872.44;5073096;28;20193;-77
2023/03/27 00:08:28;;;;;;;15.80;8.75;;;;;;;8.44;55.18;62868.34;5080844;28;20228;-76
2023/03/27 00:10:55;;;;;;;14.48;9.68;;;;;;;8.42;55.65;62863.75;5071487;28;20205;-75
2023/03/27 00:13:23;;;;;;;17.88;10.25;;;;;;;8.33;55.86;62859.50;5065967;28;20221;-75
2023/03/27 00:15:53;;;;;;;17.70;9.52;;;;;;;8.36;55.57;62860.06;5067552;28;20197;-75
2023/03/27 00:18:22;;;;;;;14.98;9.05;;;;;;;8.30;56.13;62853.88;5069066;28;20252;-76
2023/03/27 00:20:49;;;;;;;19.42;9.48;;;;;;;8.27;55.29;62853.84;5075814;28;20198;-76
2023/03/27 00:23:16;;;;;;;13.65;9.68;;;;;;;8.26;56.46;62849.75;5078966;28;20521;-77
2023/03/27 00:25:45;;;;;;;14.00;8.38;;;;;;;8.23;56.29;62846.63;5080332;28;20193;-76
2023/03/27 00:28:12;;;;;;;16.25;8.27;;;;;;;8.20;55.88;62838.97;5070516;28;20324;-76
2023/03/27 00:30:40;;;;;;;12.35;7.07;;;;;;;8.15;56.76;62838.88;5078260;28;20201;-76
2023/03/27 00:33:09;;;;;;;9.02;7.78;;;;;;;8.18;55.45;62844.50;5066352;28;20221;-77
2023/03/27 00:35:36;;;;;;;14.82;8.57;;;;;;;8.23;55.71;62846.63;5075425;28;20193;-75
2023/03/27 00:38:04;;;;;;;9.73;7.57;;;;;;;8.24;55.83;62845.16;5084726;28;20240;-76
2023/03/27 00:40:32;;;;;;;14.02;6.88;;;;;;;8.29;55.46;62850.31;5081983;28;20456;-76
2023/03/27 00:42:59;;;;;;;11.18;7.13;;;;;;;8.20;54.24;62844.03;5070704;28;20284;-75
2023/03/27 00:45:29;;;;;;;12.20;6.18;;;;;;;8.25;53.96;62854.28;5085751;28;20260;-76
2023/03/27 00:48:02;;;;;;;10.15;6.80;;;;;;;8.31;54.58;62857.97;5086584;28;20221;-76
2023/03/27 00:50:35;;;;;;;8.45;5.80;;;;;;;8.28;54.45;62849.81;5079005;28;20197;-76
2023/03/27 00:53:08;;;;;;;10.43;4.90;;;;;;;8.36;52.90;62855.00;5066229;28;20217;-76
2023/03/27 00:55:38;;;;;;;9.95;5.25;;;;;;;8.42;52.58;62866.28;5073638;28;20224;-75
2023/03/27 00:58:09;;;;;;;8.65;5.68;;;;;;;8.50;53.09;62872.53;5078086;28;20236;-76
2023/03/27 01:00:37;;;;;;;7.38;5.00;;;;;;;8.56;52.02;62881.25;5065427;28;20471;-76
2023/03/27 01:03:08;;;;;;;10.85;5.38;;;;;;;8.62;52.79;62884.41;5075921;28;20518;-77
2023/03/27 01:05:37;;;;;;;11.18;4.93;;;;;;;8.57;52.02;62879.75;5073373;28;20201;-77
2023/03/27 01:08:05;;;;;;;9.02;5.22;;;;;;;8.54;52.11;62879.19;5067810;28;20217;-76
2023/03/27 01:10:42;;;;;;;8.60;5.40;;;;;;;8.55;52.55;62879.69;5064176;28;20189;-77
2023/03/27 01:13:22;;;;;;;7.40;4.40;;;;;;;8.61;50.74;62888.94;5066867;28;20225;-76
2023/03/27 01:15:58;;;;;;;4.25;2.90;;;;;;;8.70;50.07;62893.19;5072732;28;20193;-76
2023/03/27 01:18:41;;;;;;;7.50;5.18;;;;;;;8.63;53.63;62887.97;5084833;28;20246;-76
2023/03/27 01:21:54;;;;;;;6.35;4.68;;;;;;;8.57;54.07;62879.22;5075384;28;20193;-75
2023/03/27 01:25:07;;;;;;;11.27;4.10;;;;;;;8.52;52.23;62879.66;5076870;28;20200;-75
2023/03/27 01:28:20;;;;;;;5.70;4.20;;;;;;;8.54;52.43;62881.22;5065756;28;20247;-76
2023/03/27 01:30:54;;;;;;;7.53;4.25;;;;;;;8.56;52.62;62881.25;5004680;28;20199;-76
2023/03/27 01:33:42;;;;;;;4.47;3.83;;;;;;;8.60;52.44;62887.94;5019997;28;20221;-76
2023/03/27 01:36:40;;;;;;;8.77;4.75;;;;;;;8.64;52.74;62884.44;5059144;28;20201;-77
2023/03/27 01:39:23;;;;;;;5.72;3.75;;;;;;;8.58;52.44;62885.84;5067017;28;20256;-75
2023/03/27 01:41:56;;;;;;;5.90;4.53;;;;;;;8.58;52.70;62875.72;5069157;28;20256;-75
2023/03/27 01:44:31;;;;;;;6.47;4.80;;;;;;;8.59;53.02;62879.28;5087138;28;20277;-76
2023/03/27 01:47:06;;;;;;;5.88;4.55;;;;;;;8.58;53.54;62880.78;5085596;28;20212;-75
2023/03/27 01:49:39;;;;;;;6.00;4.22;;;;;;;8.54;54.72;62878.69;5082964;28;20204;-75
2023/03/27 01:52:10;;;;;;;7.05;3.83;;;;;;;8.52;54.58;62879.16;5063694;28;20231;-75
2023/03/27 01:54:42;;;;;;;4.00;3.70;;;;;;;8.53;53.66;62878.16;5064526;28;20498;-74
2023/03/27 01:57:19;;;;;;;6.20;3.80;;;;;;;8.52;54.30;62877.13;5069654;28;20416;-76
2023/03/27 01:59:51;;;;;;;5.35;4.10;;;;;;;8.51;53.34;62873.53;5063807;28;20489;-76
2023/03/27 02:02:24;;;;;;;6.53;3.53;;;;;;;8.53;53.13;62873.09;5073267;28;20224;-76
2023/03/27 02:04:57;;;;;;;5.85;3.50;;;;;;;8.51;53.17;62873.53;5083324;28;20200;-75
2023/03/27 02:07:32;;;;;;;3.00;2.80;;;;;;;8.41;54.02;62867.78;5066901;28;20445;-76
2023/03/27 02:10:07;;;;;;;5.05;4.05;;;;;;;8.32;54.23;62858.50;5082887;28;20208;-75
2023/03/27 02:12:37;;;;;;;3.88;3.50;;;;;;;8.28;54.31;62847.25;5072807;28;20360;-75
2023/03/27 02:15:10;;;;;;;3.55;3.30;;;;;;;8.30;53.55;62856.94;5068421;28;20207;-75
2023/03/27 02:17:43;;;;;;;3.47;3.17;;;;;;;8.28;54.02;62854.34;5064721;28;20254;-76
2023/03/27 02:20:15;;;;;;;6.55;3.45;;;;;;;8.29;54.03;62853.38;5081265;28;20220;-74
2023/03/27 02:22:42;;;;;;;7.57;4.00;;;;;;;8.26;54.51;62852.28;5073613;28;20540;-76
2023/03/27 02:25:26;;;;;;;3.20;2.95;;;;;;;8.22;55.99;62851.19;5085550;28;20526;-77
2023/03/27 02:28:04;;;;;;;4.47;3.03;;;;;;;8.19;56.42;62838.47;5065898;28;20234;-75
2023/03/27 02:30:37;;;;;;;3.05;2.75;;;;;;;8.18;54.95;62839.44;5064353;28;20201;-76
2023/03/27 02:33:14;;;;;;;2.60;2.38;;;;;;;8.07;55.37;62828.63;5072938;28;20216;-75
2023/03/27 02:35:50;;;;;;;4.63;3.03;;;;;;;7.96;54.81;62822.31;5079802;28;20235;-76
2023/03/27 02:38:22;;;;;;;4.05;2.58;;;;;;;7.95;55.13;62818.22;5085895;28;20296;-76
2023/03/27 02:40:59;;;;;;;3.28;2.97;;;;;;;7.90;55.99;62811.03;5074432;28;20449;-76
2023/03/27 02:43:31;;;;;;;3.65;3.33;;;;;;;7.81;56.07;62811.91;5068406;28;20220;-74
2023/03/27 02:46:06;;;;;;;3.78;3.42;;;;;;;7.82;55.74;62810.38;5075797;28;20242;-76
2023/03/27 02:48:37;;;;;;;3.65;2.97;;;;;;;7.69;56.71;62791.38;5071142;28;20220;-74
2023/03/27 02:51:09;;;;;;;5.13;3.47;;;;;;;7.64;56.24;62786.22;5075598;28;20205;-74
2023/03/27 02:53:42;;;;;;;3.08;2.83;;;;;;;7.49;57.21;62771.25;5064652;28;20205;-75
2023/03/27 02:56:12;;;;;;;5.88;3.20;;;;;;;7.44;56.65;62768.63;5075658;28;20194;-75
2023/03/27 02:58:46;;;;;;;4.88;3.72;;;;;;;7.42;56.55;62763.53;5070527;28;20229;-77
2023/03/27 03:01:17;;;;;;;4.63;2.75;;;;;;;7.38;57.27;62759.38;5064099;28;20190;-75
2023/03/27 03:03:52;;;;;;;2.85;2.47;;;;;;;7.29;57.88;62747.56;5069905;28;20200;-75
2023/03/27 03:06:20;;;;;;;2.20;2.08;;;;;;;7.31;57.42;62752.16;5066134;28;20490;-73
2023/03/27 03:08:49;;;;;;;2.22;2.03;;;;;;;7.23;57.67;62741.88;5073411;28;20204;-75
2023/03/27 03:11:18;;;;;;;2.63;1.98;;;;;;;7.20;58.13;62738.28;5081238;28;20200;-75
2023/03/27 03:13:45;;;;;;;2.28;2.08;;;;;;;7.13;57.82;62734.09;5064136;28;20371;-75
2023/03/27 03:16:12;;;;;;;3.20;2.67;;;;;;;7.14;57.81;62732.63;5067235;28;20554;-76
2023/03/27 03:18:39;;;;;;;3.25;2.72;;;;;;;7.14;57.56;62737.69;5062502;28;20231;-75
2023/03/27 03:21:06;;;;;;;3.47;2.20;;;;;;;7.14;57.90;62737.16;5061886;28;20506;-74
2023/03/27 03:23:33;;;;;;;3.45;2.25;;;;;;;7.14;57.39;62732.63;5070091;28;20205;-75
2023/03/27 03:26:01;;;;;;;7.68;3.00;;;;;;;7.19;56.69;62742.31;5077155;28;20217;-75
2023/03/27 03:28:30;;;;;;;3.70;2.65;;;;;;;7.15;56.79;62733.63;5068784;28;20209;-76
2023/03/27 03:30:57;;;;;;;2.65;2.45;;;;;;;7.22;56.57;62747.94;5070729;28;20189;-75
2023/03/27 03:33:26;;;;;;;3.53;3.22;;;;;;;7.22;57.64;62738.34;5069061;28;20552;-75
2023/03/27 03:35:57;;;;;;;3.75;3.03;;;;;;;7.23;57.25;62746.94;5086074;28;20192;-75
2023/03/27 03:38:25;;;;;;;4.00;3.15;;;;;;;7.26;56.76;62749.53;5065913;28;20228;-76
2023/03/27 03:40:53;;;;;;;4.70;4.00;;;;;;;7.26;57.04;62749.53;5066043;28;20223;-75
2023/03/27 03:43:21;;;;;;;5.78;4.00;;;;;;;7.36;56.70;62757.31;5068397;28;20271;-76
2023/03/27 03:45:51;;;;;;;4.35;3.95;;;;;;;7.34;56.55;62758.31;5073255;28;20193;-75
2023/03/27 03:48:19;;;;;;;4.35;3.47;;;;;;;7.33;56.31;62747.16;5074104;28;20225;-76
2023/03/27 03:50:47;;;;;;;4.35;3.17;;;;;;;7.28;57.81;62749.06;5078637;28;20577;-75
2023/03/27 03:53:16;;;;;;;3.47;3.28;;;;;;;7.32;57.97;62756.25;5071723;28;20233;-76
2023/03/27 03:55:43;;;;;;;4.00;3.38;;;;;;;7.31;56.69;62754.69;5079934;28;20193;-73
2023/03/27 03:58:10;;;;;;;4.70;4.05;;;;;;;7.33;57.10;62751.69;5076922;28;20232;-75
2023/03/27 04:00:39;;;;;;;4.53;4.00;;;;;;;7.35;56.69;62751.22;5067958;28;20213;-74
2023/03/27 04:03:09;;;;;;;8.15;4.57;;;;;;;7.35;57.31;62756.81;5079614;28;20212;-74
2023/03/27 04:05:37;;;;;;;5.60;4.40;;;;;;;7.34;57.08;62753.25;5081089;28;20208;-76
2023/03/27 04:08:06;;;;;;;6.45;4.25;;;;;;;7.34;58.18;62755.78;5078580;28;20217;-75
2023/03/27 04:10:34;;;;;;;7.43;4.35;;;;;;;7.23;57.61;62744.41;5069245;28;20201;-74
2023/03/27 04:13:01;;;;;;;5.90;3.88;;;;;;;7.37;56.42;62756.34;5066687;28;20352;-77
2023/03/27 04:15:28;;;;;;;6.68;3.75;;;;;;;7.36;56.87;62757.31;5078257;28;20207;-78
2023/03/27 04:17:56;;;;;;;6.57;3.85;;;;;;;7.38;56.92;62762.44;5068655;28;20220;-75
2023/03/27 04:20:26;;;;;;;6.07;2.85;;;;;;;7.45;54.51;62766.63;5085945;28;20590;-75
2023/03/27 04:22:54;;;;;;;3.15;2.92;;;;;;;7.57;54.61;62779.53;5084469;28;20221;-74
2023/03/27 04:25:23;;;;;;;3.95;2.45;;;;;;;7.70;54.84;62792.41;5073925;28;20201;-75
2023/03/27 04:27:51;;;;;;;7.88;2.75;;;;;;;7.77;54.03;62800.16;5080921;28;20490;-75
2023/03/27 04:30:22;;;;;;;2.97;2.75;;;;;;;7.82;53.08;62807.84;5068662;28;20381;-74
2023/03/27 04:32:50;;;;;;;7.25;2.35;;;;;;;7.88;52.90;62814.06;5073906;28;20267;-74
2023/03/27 04:35:18;;;;;;;8.38;2.75;;;;;;;8.01;52.99;62822.41;5085637;28;20264;-76
2023/03/27 04:37:47;;;;;;;1.80;1.70;;;;;;;8.15;51.10;62838.88;5079711;28;20293;-76
2023/03/27 04:40:17;;;;;;;4.65;1.70;;;;;;;8.19;50.25;62841.00;5066185;28;20233;-75
2023/03/27 04:42:45;;;;;;;1.90;1.80;;;;;;;8.32;50.48;62861.03;5079919;28;20224;-75
2023/03/27 04:45:16;;;;;;;1.33;1.23;;;;;;;8.36;50.43;62857.53;5078279;28;20201;-76
2023/03/27 04:47:42;;;;;;;3.78;1.30;;;;;;;8.42;50.88;62869.31;5087004;28;20358;-74
2023/03/27 04:50:13;;;;;;;1.40;1.30;;;;;;;8.51;50.73;62878.13;5077600;28;20243;-76
2023/03/27 04:52:40;;;;;;;1.30;1.23;;;;;;;8.60;51.49;62887.94;5068922;28;20526;-75
2023/03/27 04:55:11;;;;;;;1.30;1.30;;;;;;;8.59;49.90;62879.28;5066278;28;20204;-76
2023/03/27 04:57:38;;;;;;;2.35;1.40;;;;;;;8.63;50.60;62888.47;5070758;28;20239;-76
2023/03/27 05:00:15;;;;;;;1.48;1.38;;;;;;;8.85;50.99;62908.16;5085590;28;20252;-77
2023/03/27 05:02:42;;;;;;;1.40;1.30;;;;;;;9.01;50.77;62927.22;5084877;28;20254;-75
2023/03/27 05:05:09;;;;;;;1.20;1.20;;;;;;;9.08;49.88;62935.00;5087384;28;20200;-75
2023/03/27 05:07:37;;;;;;;1.17;0.98;;;;;;;9.26;49.13;62955.63;5087575;28;20248;-73
2023/03/27 05:10:06;;;;;;;2.58;1.13;;;;;;;9.34;50.69;62959.31;5077187;28;20247;-75
2023/03/27 05:12:34;;;;;;;1.88;1.77;;;;;;;9.40;50.42;62970.09;5065603;28;20425;-75
2023/03/27 05:15:04;;;;;;;1.50;1.40;;;;;;;9.57;49.83;62987.16;5064745;28;20536;-76
2023/03/27 05:17:32;;;;;;;1.08;1.02;;;;;;;9.62;49.79;62987.25;5085283;28;20216;-76
2023/03/27 05:19:59;;;;;;;1.17;1.05;;;;;;;9.58;48.87;62983.63;5085978;28;20243;-76
2023/03/27 05:22:26;;;;;;;1.55;1.50;;;;;;;9.54;49.00;62984.59;5084874;28;20254;-75
2023/03/27 05:24:53;;;;;;;3.35;1.23;;;;;;;9.56;49.42;62983.59;5086897;28;20404;-77
2023/03/27 05:27:20;;;;;;;1.50;1.40;;;;;;;9.63;49.52;62991.34;5083275;28;20216;-75
2023/03/27 05:29:49;;;;;;;1.45;1.35;;;;;;;9.70;49.51;62998.06;5064547;28;20197;-76
2023/03/27 05:32:16;;;;;;;3.13;1.85;;;;;;;9.72;49.90;63002.66;5065342;28;20288;-76
2023/03/27 05:34:42;;;;;;;1.42;1.40;;;;;;;9.90;49.18;63021.28;5067022;28;20216;-76
2023/03/27 05:37:10;;;;;;;2.20;1.33;;;;;;;9.94;49.46;63023.41;5075925;28;20221;-75
2023/03/27 05:39:36;;;;;;;1.60;1.50;;;;;;;9.96;48.95;63025.47;5087188;28;20307;-75
2023/03/27 05:42:04;;;;;;;1.52;1.50;;;;;;;9.86;49.25;63012.59;5087067;28;20442;-75
2023/03/27 05:44:31;;;;;;;2.20;1.48;;;;;;;9.93;49.68;63021.84;5065830;28;20197;-76
2023/03/27 05:47:00;;;;;;;1.27;1.17;;;;;;;10.06;49.40;63035.81;5064703;28;20231;-75
2023/03/27 05:49:26;;;;;;;1.50;1.45;;;;;;;10.06;49.17;63033.25;5065228;28;20197;-76
2023/03/27 05:51:54;;;;;;;2.05;1.40;;;;;;;10.29;49.35;63059.63;5064480;28;20271;-76
2023/03/27 05:54:21;;;;;;;1.38;1.30;;;;;;;10.33;49.62;63066.31;5066355;28;20271;-76
2023/03/27 05:56:48;;;;;;;1.83;1.73;;;;;;;10.41;49.18;63074.59;5085253;28;20405;-76
2023/03/27 05:59:16;;;;;;;1.33;1.33;;;;;;;10.54;48.89;63085.00;5090696;28;20266;-76
2023/03/27 06:01:43;;;;;;;2.20;1.50;;;;;;;10.61;48.76;63092.25;5070321;28;20233;-76
2023/03/27 06:04:12;;;;;;;3.28;1.40;;;;;;;10.73;48.90;63102.13;5069320;28;20378;-76
2023/03/27 06:06:40;;;;;;;1.55;1.45;;;;;;;10.92;48.21;63121.78;5085428;28;20269;-75
2023/03/27 06:09:09;;;;;;;1.58;1.48;;;;;;;11.15;47.54;63147.59;5082977;28;20246;-76
2023/03/27 06:11:36;;;;;;;1.70;1.60;;;;;;;11.38;47.14;63171.97;5064068;28;20227;-75
2023/03/27 06:14:04;;;;;;;2.05;1.95;;;;;;;11.43;46.44;63179.16;5063730;28;20201;-76
2023/03/27 06:16:32;;;;;;;2.30;2.20;;;;;;;11.63;46.82;63199.91;5069959;28;20258;-74
2023/03/27 06:18:59;;;;;;;1.45;1.35;;;;;;;11.83;46.33;63218.09;5077976;28;20308;-76
2023/03/27 06:21:27;;;;;;;1.70;1.60;;;;;;;12.00;45.68;63243.34;5070212;28;20414;-75
2023/03/27 06:23:55;;;;;;;1.35;1.25;;;;;;;12.08;44.81;63246.53;5084297;28;20200;-76
2023/03/27 06:26:22;;;;;;;1.65;1.55;;;;;;;11.88;44.18;63220.72;5086370;28;20255;-75
2023/03/27 06:28:49;;;;;;;2.22;1.98;;;;;;;11.75;45.38;63209.28;5068389;28;20448;-75
2023/03/27 06:31:18;;;;;;;1.88;1.77;;;;;;;11.80;45.92;63214.97;5080131;28;20204;-75
2023/03/27 06:33:45;;;;;;;4.05;2.03;;;;;;;12.00;45.52;63233.16;5085460;28;20220;-77
2023/03/27 06:36:13;;;;;;;2.40;1.48;;;;;;;12.15;44.58;63250.72;5085209;28;20223;-76
2023/03/27 06:38:41;;;;;;;2.38;2.17;;;;;;;12.32;44.80;63268.84;5079560;28;20217;-75
2023/03/27 06:41:08;;;;;;;6.35;2.53;;;;;;;12.41;44.15;63275.13;5063959;28;20247;-74
2023/03/27 06:43:35;;;;;;;3.10;2.33;;;;;;;12.28;45.31;63264.72;5063792;28;20196;-77
2023/03/27 06:46:03;;;;;;;4.70;2.08;;;;;;;12.51;44.10;63285.50;5070005;28;20201;-75
2023/03/27 06:48:30;;;;;;;6.75;2.70;;;;;;;12.61;43.93;63301.47;5079435;28;20264;-76
2023/03/27 06:50:57;;;;;;;7.35;3.00;;;;;;;12.05;44.91;63240.34;5085489;28;20200;-74
2023/03/27 06:53:24;;;;;;;11.43;3.25;;;;;;;11.98;46.20;63233.09;5081753;28;20226;-75
2023/03/27 06:55:53;;;;;;;5.22;2.80;;;;;;;12.03;45.95;63243.91;5069620;28;20266;-76
2023/03/27 06:58:20;;;;;;;5.05;2.35;;;;;;;12.01;45.91;63236.22;5082593;28;20223;-75
2023/03/27 07:00:48;;;;;;;5.00;2.60;;;;;;;11.96;45.80;63231.53;5066720;28;20229;-76
2023/03/27 07:03:16;;;;;;;10.18;3.55;;;;;;;11.85;46.34;63220.16;5063383;28;20271;-76
2023/03/27 07:05:43;;;;;;;4.18;2.78;;;;;;;11.60;46.22;63196.78;5066333;28;20197;-75
2023/03/27 07:08:13;;;;;;;7.53;2.97;;;;;;;11.58;47.17;63190.13;5064261;28;20237;-76
2023/03/27 07:10:40;;;;;;;4.80;3.08;;;;;;;11.85;46.08;63222.19;5068642;28;20200;-75
2023/03/27 07:13:08;;;;;;;8.85;4.18;;;;;;;12.04;46.43;63241.88;5068865;28;20244;-74
2023/03/27 07:15:35;;;;;;;9.48;5.07;;;;;;;12.43;44.80;63282.28;5066540;28;20482;-76
2023/03/27 07:18:06;;;;;;;7.68;4.43;;;;;;;12.69;44.68;63307.22;5086865;28;20576;-76
2023/03/27 07:20:34;;;;;;;5.68;5.03;;;;;;;12.91;43.81;63332.06;5078273;28;20251;-76
2023/03/27 07:23:02;;;;;;;9.40;5.10;;;;;;;12.92;43.75;63330.56;5075258;28;20266;-76
2023/03/27 07:25:35;;;;;;;11.38;5.00;;;;;;;13.13;43.84;63349.28;5084665;28;20204;-76
2023/03/27 07:28:04;;;;;;;7.25;4.95;;;;;;;13.55;42.94;63393.38;5074536;28;20257;-76
2023/03/27 07:30:32;;;;;;;6.47;5.55;;;;;;;13.43;42.79;63380.91;5072618;28;20232;-75
2023/03/27 07:32:59;;;;;;;14.90;6.03;;;;;;;13.57;42.84;63400.03;5078299;28;20576;-75
2023/03/27 07:35:26;;;;;;;9.98;5.65;;;;;;;13.41;43.10;63381.41;5069629;28;20572;-76
2023/03/27 07:37:54;;;;;;;7.35;5.07;;;;;;;13.33;43.13;63375.66;5069205;28;20229;-75
2023/03/27 07:40:22;;;;;;;5.57;5.00;;;;;;;13.72;42.14;63415.59;5068829;28;20382;-75
2023/03/27 07:42:50;;;;;;;6.93;4.93;;;;;;;13.62;42.57;63402.69;5078788;28;20255;-75
2023/03/27 07:45:17;;;;;;;6.20;3.92;;;;;;;13.86;42.41;63430.16;5066971;28;20197;-75
2023/03/27 07:47:46;;;;;;;8.60;3.90;;;;;;;14.01;42.21;63443.16;5072595;28;20320;-76
2023/03/27 07:50:16;;;;;;;7.53;3.80;;;;;;;14.09;42.63;63448.91;5084376;28;20394;-75
2023/03/27 07:52:45;;;;;;;4.80;3.17;;;;;;;14.30;41.35;63475.84;5090528;28;20276;-75
2023/03/27 07:55:13;;;;;;;6.80;3.83;;;;;;;14.35;41.28;63481.03;5080917;28;20201;-76
2023/03/27 07:57:41;;;;;;;6.13;3.97;;;;;;;14.30;41.34;63473.28;5073032;28;20208;-75
2023/03/27 08:00:13;;;;;;;4.68;4.00;;;;;;;14.37;41.42;63478.00;5085996;28;20528;-74
2023/03/27 08:02:40;;;;;;;5.80;3.70;;;;;;;14.52;40.63;63501.25;5087131;28;20223;-74
2023/03/27 08:05:10;;;;;;;5.57;3.85;;;;;;;14.51;40.60;63495.09;5086840;28;20215;-75
2023/03/27 08:07:39;;;;;;;4.00;3.60;;;;;;;14.45;40.91;63486.31;5076826;28;20220;-76
2023/03/27 08:10:08;;;;;;;8.07;3.90;;;;;;;14.60;40.92;63506.50;5088723;28;20347;-75
2023/03/27 08:12:36;;;;;;;5.65;3.92;;;;;;;14.84;40.59;63531.94;5085542;28;20221;-76
2023/03/27 08:15:03;;;;;;;4.88;3.63;;;;;;;14.26;40.98;63468.59;5070287;28;20205;-75
2023/03/27 08:17:32;;;;;;;6.22;4.38;;;;;;;14.35;41.30;63475.94;5081234;28;20228;-73
2023/03/27 08:20:00;;;;;;;3.83;2.95;;;;;;;14.58;41.75;63506.97;5085346;28;20252;-75
2023/03/27 08:22:30;;;;;;;3.25;2.95;;;;;;;14.58;40.14;63499.28;5078635;28;20461;-76
2023/03/27 08:24:57;;;;;;;3.40;3.00;;;;;;;14.78;40.49;63523.16;5082906;28;20200;-76
2023/03/27 08:27:24;;;;;;;3.60;3.30;;;;;;;14.83;40.93;63525.78;5086135;28;20224;-76
2023/03/27 08:29:51;;;;;;;4.57;3.72;;;;;;;14.81;41.23;63526.25;5086966;28;20485;-76
2023/03/27 08:32:19;;;;;;;4.22;2.95;;;;;;;15.06;40.83;63549.66;5085892;28;20317;-76
2023/03/27 08:34:46;;;;;;;6.00;2.90;;;;;;;14.82;40.53;63531.91;5083239;28;20235;-78
2023/03/27 08:37:13;;;;;;;8.80;3.22;;;;;;;14.62;40.75;63506.53;5087517;28;20250;-77
2023/03/27 08:39:47;;;;;;;4.47;2.80;;;;;;;14.76;41.28;63520.53;5086796;28;20277;-77
2023/03/27 08:42:18;;;;;;;5.15;3.10;;;;;;;14.18;44.69;63458.25;5075165;28;20540;-76
2023/03/27 08:44:45;;;;;;;2.55;1.50;;;;;;;13.72;46.55;63416.13;5068977;28;20220;-73
2023/03/27 08:47:18;;;;;;;4.88;1.70;;;;;;;13.29;51.86;63368.94;5066793;28;20327;-76
2023/03/27 08:49:50;;;;;;;1.45;1.35;;;;;;;12.92;54.79;63335.16;5093146;28;20196;-75
2023/03/27 08:52:21;;;;;;;1.60;1.50;;;;;;;12.72;53.58;63312.88;5096074;28;20227;-76
2023/03/27 08:54:57;;;;;;;1.90;1.80;;;;;;;12.64;52.77;63299.50;5066746;28;20273;-76
2023/03/27 08:57:27;;;;;;;1.63;1.52;;;;;;;12.80;50.83;63321.19;5068705;28;20259;-76
2023/03/27 08:59:58;;;;;;;1.83;1.73;;;;;;;12.96;47.83;63334.19;5083539;28;20220;-75
2023/03/27 09:02:34;;;;;;;2.90;1.95;;;;;;;13.24;48.02;63363.75;5077896;28;20313;-77
2023/03/27 09:05:08;;;;;;;1.60;1.50;;;;;;;13.52;47.81;63392.81;5078338;28;20205;-76
2023/03/27 09:07:43;;;;;;;2.25;1.70;;;;;;;14.08;46.27;63447.34;5083055;28;20216;-76
2023/03/27 09:10:18;;;;;;;1.88;1.77;;;;;;;14.34;45.78;63477.44;5070075;28;20217;-77
2023/03/27 09:12:59;;;;;;;2.70;1.52;;;;;;;14.58;44.37;63507.47;5067509;28;20216;-76
2023/03/27 09:15:29;;;;;;;1.70;1.60;;;;;;;14.73;45.52;63525.66;5067350;28;20207;-76
2023/03/27 09:18:01;;;;;;;2.13;2.03;;;;;;;14.91;44.50;63539.22;5064094;28;20216;-76
2023/03/27 09:20:33;;;;;;;2.05;1.90;;;;;;;15.01;43.88;63549.09;5064945;28;20217;-77
2023/03/27 09:23:09;;;;;;;1.90;1.80;;;;;;;14.94;43.91;63536.69;5078320;28;20231;-77
2023/03/27 09:25:41;;;;;;;1.92;1.45;;;;;;;14.88;45.33;63533.53;5082646;28;20200;-77
2023/03/27 09:28:17;;;;;;;1.80;1.50;;;;;;;14.91;46.94;63536.66;5078281;28;20251;-77
2023/03/27 09:30:44;;;;;;;3.55;1.63;;;;;;;14.72;46.08;63516.41;5083507;28;20192;-76
2023/03/27 09:33:12;;;;;;;1.55;1.45;;;;;;;14.66;46.16;63513.25;5067193;28;20220;-75
2023/03/27 09:35:40;;;;;;;2.80;1.50;;;;;;;14.46;47.21;63491.94;5065371;28;20197;-75
2023/03/27 09:38:23;;;;;;;3.28;1.55;;;;;;;14.22;48.44;63467.00;5068560;28;20225;-75
2023/03/27 09:40:57;;;;;;;1.80;1.70;;;;;;;13.91;47.36;63432.78;5064675;28;20238;-76
2023/03/27 09:43:28;;;;;;;2.30;2.10;;;;;;;13.73;49.52;63414.09;5067972;28;20224;-75
2023/03/27 09:45:58;;;;;;;2.58;1.77;;;;;;;13.75;48.32;63416.19;5068236;28;20288;-75
2023/03/27 09:48:34;;;;;;;1.77;1.67;;;;;;;13.83;50.03;63427.03;5072748;28;20232;-75
2023/03/27 09:51:01;;;;;;;1.40;1.30;;;;;;;14.08;50.97;63452.97;5086483;28;20203;-75
2023/03/27 09:53:28;;;;;;;1.77;1.67;;;;;;;14.27;51.32;63470.16;5079016;28;20436;-75
2023/03/27 09:55:59;;;;;;;2.15;1.90;;;;;;;14.53;53.42;63499.22;5067246;28;20445;-76
2023/03/27 09:58:38;;;;;;;2.05;1.95;;;;;;;14.71;48.89;63515.88;5074523;28;20240;-75
2023/03/27 10:01:15;;;;;;;3.17;1.88;;;;;;;14.86;45.34;63531.44;5070545;28;20244;-76
2023/03/27 10:03:48;;;;;;;2.30;1.80;;;;;;;14.90;46.30;63538.19;5082479;28;20201;-75
2023/03/27 10:06:23;;;;;;;2.15;2.05;;;;;;;15.16;44.99;63561.56;5077463;28;20250;-75
2023/03/27 10:08:50;;;;;;;4.28;2.10;;;;;;;15.03;44.06;63548.59;5066119;28;20224;-75
2023/03/27 10:11:23;;;;;;;3.15;2.40;;;;;;;14.82;46.56;63524.72;5063661;28;20559;-76
2023/03/27 10:13:51;;;;;;;3.63;2.22;;;;;;;14.24;48.82;63469.06;5070637;28;20196;-76
2023/03/27 10:16:22;;;;;;;5.30;2.70;;;;;;;13.87;49.46;63426.56;5074707;28;20196;-76
2023/03/27 10:18:53;;;;;;;3.03;2.47;;;;;;;13.60;52.12;63403.16;5070801;28;20277;-76
2023/03/27 10:21:27;;;;;;;1.95;1.75;;;;;;;13.31;50.20;63373.59;5077009;28;20266;-77
2023/03/27 10:24:01;;;;;;;1.42;1.33;;;;;;;13.25;50.64;63364.28;5068018;28;20201;-76
2023/03/27 10:26:32;;;;;;;1.70;1.60;;;;;;;13.14;54.22;63352.88;5076373;28;20217;-76
2023/03/27 10:29:01;;;;;;;2.20;1.92;;;;;;;13.15;54.66;63351.88;5086874;28;20212;-76
2023/03/27 10:31:31;;;;;;;2.13;2.00;;;;;;;13.32;55.44;63372.06;5079007;28;20232;-77
2023/03/27 10:34:02;;;;;;;2.30;1.60;;;;;;;13.23;54.90;63364.78;5084059;28;20184;-76
2023/03/27 10:36:34;;;;;;;1.88;1.77;;;;;;;13.26;56.23;63365.84;5083969;28;20220;-76
2023/03/27 10:39:04;;;;;;;3.22;1.77;;;;;;;13.31;55.86;63373.59;5066174;28;20273;-76
2023/03/27 10:41:35;;;;;;;1.75;1.73;;;;;;;13.22;56.98;63366.31;5072599;28;20412;-75
2023/03/27 10:44:07;;;;;;;2.08;1.98;;;;;;;13.45;56.84;63385.03;5089031;28;20204;-75
2023/03/27 10:46:39;;;;;;;1.95;1.85;;;;;;;13.71;56.17;63412.53;5099758;28;20276;-75
2023/03/27 10:49:18;;;;;;;1.98;1.88;;;;;;;13.94;53.06;63436.41;5069981;28;20224;-74
2023/03/27 10:51:50;;;;;;;1.83;1.75;;;;;;;14.33;50.44;63476.41;5071595;28;20220;-74
2023/03/27 10:54:32;;;;;;;3.67;1.70;;;;;;;14.63;47.94;63502.44;5075963;28;20272;-75
2023/03/27 10:57:04;;;;;;;1.50;1.50;;;;;;;14.70;48.85;63519.94;5069364;28;20248;-75
2023/03/27 10:59:38;;;;;;;1.65;1.65;;;;;;;15.10;45.06;63555.84;5081472;28;20395;-75
2023/03/27 11:02:14;;;;;;;1.85;1.75;;;;;;;15.41;45.69;63588.09;5069969;28;20243;-75
2023/03/27 11:04:48;;;;;;;1.92;1.83;;;;;;;15.58;42.87;63605.75;5069866;28;20401;-76
2023/03/27 11:07:21;;;;;;;1.70;1.60;;;;;;;16.01;41.95;63650.47;5068272;28;20232;-76
2023/03/27 11:10:02;;;;;;;1.65;1.65;;;;;;;16.44;44.51;63691.59;5073750;28;20244;-76
2023/03/27 11:12:32;;;;;;;2.55;2.45;;;;;;;16.70;42.95;63721.25;5071564;28;20477;-77
2023/03/27 11:15:06;;;;;;;3.05;2.10;;;;;;;16.68;43.11;63721.72;5068177;28;20201;-76
2023/03/27 11:17:41;;;;;;;2.25;2.15;;;;;;;15.99;44.52;63648.41;5069006;28;20278;-75
2023/03/27 11:20:20;;;;;;;2.08;1.85;;;;;;;15.33;47.12;63581.81;5086503;28;20204;-75
2023/03/27 11:22:54;;;;;;;1.73;1.63;;;;;;;14.53;51.50;63497.16;5082371;28;20216;-75
2023/03/27 11:25:39;;;;;;;2.53;1.90;;;;;;;14.03;56.87;63447.28;5074205;28;20196;-75
2023/03/27 11:28:18;;;;;;;1.85;1.75;;;;;;;13.16;61.27;63360.59;5073088;28;20220;-74
2023/03/27 11:30:49;;;;;;;1.42;1.30;;;;;;;12.82;68.96;63320.19;5060537;28;20201;-74
2023/03/27 11:33:37;;;;;;;2.33;1.95;;;;;;;12.53;76.20;63295.75;5062887;28;20221;-75
2023/03/27 11:36:15;;;;;;;1.80;1.70;;;;;;;12.37;81.66;63273.53;5062532;28;20299;-75
2023/03/27 11:38:47;;;;;;;1.95;1.83;;;;;;;12.27;84.36;63263.16;5067902;28;20259;-76
2023/03/27 11:41:15;;;;;;;2.58;2.40;;;;;;;12.02;85.97;63240.31;5071105;28;20266;-78
2023/03/27 11:43:43;;;;;;;1.80;1.70;;;;;;;11.44;91.47;63180.72;5077948;28;20209;-75
2023/03/27 11:46:22;;;;;;;3.03;2.72;;;;;;;11.22;95.63;63154.88;5063477;28;20209;-75
2023/03/27 11:49:07;;;;;;;4.97;2.38;;;;;;;10.96;98.01;63131.00;5073057;28;20334;-76
2023/03/27 11:51:47;;;;;;;2.55;2.30;;;;;;;10.79;100.00;63113.41;5072918;28;20228;-77
2023/03/27 11:54:29;;;;;;;3.03;2.55;;;;;;;10.62;100.00;63090.19;5072651;28;20226;-76